tititudorancea.com
Ararat Weather - Ararat,Victoria,Australia
 
Daily Summary for May 23, 2015 Units:  Metric    English   Both
« Previous Day
Next Day »
Daily Weekly Monthly Yearly Custom
  Current: High: Low: Average:
Temperature: 9.5 °C 9.5 °C 6.4 °C 7.2 °C
Dew Point: 4.7 °C 4.7 °C 3.4 °C 3.9 °C
Humidity: 72% 83% 72% 79%
Wind Speed: 8.7km/h 17.2km/h 2.6km/h 8.7km/h
Wind Gust: 15.8km/h 27km/h - -
WindSouth - - South
Pressure: 1027 hPa 1027.3 hPa 1024.9 hPa -
Precipitation: 0 mm      
Historical Graphs
 
 
Ararat weather Find more about Weather in Ararat, AU


 




 


Tabular Data for May 23, 2015
Time Temperature Dew Point Pressure Wind Wind Speed Wind Gust Humidity Rainfall Rate (Hourly)
00:06 7.7 °C 3.8 °C 1025.6 hPa SSE 11.1 km/h 19.5 km/h 76% 0 mm
00:12 7.7 °C 3.8 °C 1025.6 hPa SSE 12.2 km/h 20.9 km/h 76% 0 mm
00:17 7.7 °C 3.8 °C 1025.3 hPa SSE 7.2 km/h 20.9 km/h 76% 0 mm
00:22 7.7 °C 3.9 °C 1025.3 hPa SSE 9.7 km/h 19.5 km/h 77% 0 mm
00:27 7.7 °C 3.8 °C 1025.6 hPa South 9.7 km/h 20.9 km/h 76% 0 mm
00:32 7.7 °C 3.7 °C 1025.6 hPa South 11.1 km/h 20.9 km/h 76% 0 mm
00:37 7.7 °C 3.7 °C 1025.6 hPa SSE 7.2 km/h 19.5 km/h 76% 0 mm
00:42 7.6 °C 3.6 °C 1025.6 hPa SSE 12.2 km/h 17.2 km/h 76% 0 mm
00:47 7.6 °C 3.6 °C 1025.3 hPa South 9.7 km/h 17.2 km/h 76% 0 mm
00:52 7.4 °C 3.7 °C 1025.6 hPa South 14.8 km/h 23.3 km/h 77% 0 mm
00:57 7.6 °C 3.8 °C 1025.6 hPa SSE 8.7 km/h 23.3 km/h 77% 0 mm
01:02 7.6 °C 3.8 °C 1025.6 hPa SSE 9.7 km/h 23.3 km/h 77% 0 mm
01:07 7.6 °C 3.8 °C 1025.3 hPa SSE 14.8 km/h 23.3 km/h 77% 0 mm
01:12 7.6 °C 3.8 °C 1025.3 hPa SSE 7.2 km/h 24.5 km/h 77% 0 mm
01:17 7.6 °C 3.8 °C 1025.3 hPa SSE 9.7 km/h 24.5 km/h 77% 0 mm
01:22 7.6 °C 3.9 °C 1025.3 hPa SSE 8.7 km/h 18.3 km/h 78% 0 mm
01:27 7.6 °C 3.8 °C 1025.3 hPa SSE 12.2 km/h 23.3 km/h 77% 0 mm
01:32 7.6 °C 3.9 °C 1024.9 hPa SSE 11.1 km/h 23.3 km/h 78% 0 mm
01:37 7.6 °C 3.9 °C 1025.3 hPa SSE 9.7 km/h 21.9 km/h 78% 0 mm
01:42 7.6 °C 3.9 °C 1025.3 hPa SSE 6.1 km/h 18.3 km/h 78% 0 mm
01:47 7.6 °C 3.9 °C 1025.3 hPa SSE 5 km/h 18.3 km/h 78% 0 mm
01:52 7.6 °C 3.9 °C 1025.3 hPa SSE 11.1 km/h 19.5 km/h 78% 0 mm
01:58 7.6 °C 3.9 °C 1025.3 hPa SSE 12.2 km/h 27 km/h 78% 0 mm
02:03 7.6 °C 3.9 °C 1024.9 hPa South 17.2 km/h 27 km/h 78% 0 mm
02:13 7.6 °C 4.2 °C 1024.9 hPa SSE 8.7 km/h 27 km/h 79% 0 mm
02:18 7.4 °C 4.1 °C 1024.9 hPa SSE 11.1 km/h 18.3 km/h 79% 0 mm
02:23 7.3 °C 3.9 °C 1025.3 hPa SSE 7.2 km/h 18.3 km/h 79% 0 mm
02:28 7.3 °C 3.9 °C 1025.3 hPa SSE 8.7 km/h 19.5 km/h 79% 0 mm
02:33 7.3 °C 3.9 °C 1025.3 hPa South 9.7 km/h 21.9 km/h 79% 0 mm
02:38 7.3 °C 3.9 °C 1025.3 hPa South 9.7 km/h 21.9 km/h 79% 0 mm
02:43 7.4 °C 4.1 °C 1025.3 hPa SSE 11.1 km/h 18.3 km/h 79% 0 mm
02:48 7.3 °C 3.8 °C 1024.9 hPa SSE 5 km/h 23.3 km/h 78% 0 mm
02:53 7.3 °C 3.9 °C 1025.3 hPa South 9.7 km/h 23.3 km/h 79% 0 mm
02:58 7.3 °C 3.9 °C 1024.9 hPa South 7.2 km/h 18.3 km/h 79% 0 mm
03:03 7.3 °C 3.9 °C 1025.3 hPa South 12.2 km/h 19.5 km/h 79% 0 mm
03:08 7.3 °C 3.9 °C 1024.9 hPa South 11.1 km/h 19.5 km/h 79% 0 mm
03:13 7.3 °C 3.9 °C 1024.9 hPa South 6.1 km/h 19.5 km/h 79% 0 mm
03:18 7.3 °C 3.9 °C 1024.9 hPa SSE 7.2 km/h 20.9 km/h 79% 0 mm
03:23 7.3 °C 3.9 °C 1024.9 hPa SSE 7.2 km/h 20.9 km/h 79% 0 mm
03:28 7.3 °C 3.9 °C 1024.9 hPa SSE 9.7 km/h 15.8 km/h 79% 0 mm
03:33 7.3 °C 3.9 °C 1024.9 hPa SSE 8.7 km/h 21.9 km/h 79% 0 mm
03:38 7.3 °C 3.8 °C 1024.9 hPa SSE 9.7 km/h 21.9 km/h 79% 0 mm
03:43 7.3 °C 3.8 °C 1024.9 hPa SSE 14.8 km/h 25.6 km/h 79% 0 mm
03:48 7.2 °C 3.8 °C 1024.9 hPa South 12.2 km/h 25.6 km/h 79% 0 mm
03:53 7.2 °C 3.8 °C 1024.9 hPa SSE 8.7 km/h 25.6 km/h 79% 0 mm
03:59 7.1 °C 3.7 °C 1024.9 hPa SSE 11.1 km/h 20.9 km/h 79% 0 mm
04:04 7.1 °C 3.7 °C 1024.9 hPa SSE 8.7 km/h 20.9 km/h 79% 0 mm
04:09 6.9 °C 3.6 °C 1024.9 hPa SSE 6.1 km/h 18.3 km/h 79% 0 mm
04:14 6.9 °C 3.6 °C 1024.9 hPa SSE 9.7 km/h 17.2 km/h 79% 0 mm
04:19 6.9 °C 3.7 °C 1025.3 hPa SSE 11.1 km/h 15.8 km/h 80% 0 mm
04:24 6.8 °C 3.7 °C 1025.3 hPa SSE 5 km/h 15.8 km/h 80% 0 mm
04:29 6.8 °C 3.7 °C 1025.3 hPa South 5 km/h 14.8 km/h 80% 0 mm
04:34 6.8 °C 3.7 °C 1025.3 hPa SSE 7.2 km/h 14.8 km/h 80% 0 mm
04:39 6.8 °C 3.6 °C 1025.3 hPa South 7.2 km/h 15.8 km/h 80% 0 mm
04:44 6.8 °C 3.6 °C 1024.9 hPa SSW 8.7 km/h 15.8 km/h 80% 0 mm
04:49 6.8 °C 3.7 °C 1025.3 hPa South 6.1 km/h 17.2 km/h 81% 0 mm
04:54 6.7 °C 3.6 °C 1024.9 hPa South 5 km/h 17.2 km/h 81% 0 mm
04:59 6.6 °C 3.6 °C 1025.3 hPa South 7.2 km/h 14.8 km/h 81% 0 mm
05:04 6.6 °C 3.6 °C 1025.3 hPa SSW 5 km/h 13.4 km/h 81% 0 mm
05:09 6.6 °C 3.6 °C 1025.3 hPa SSW 6.1 km/h 15.8 km/h 81% 0 mm
05:14 6.6 °C 3.6 °C 1025.3 hPa SSW 6.1 km/h 15.8 km/h 81% 0 mm
05:19 6.4 °C 3.4 °C 1025.3 hPa SSW 7.2 km/h 14.8 km/h 81% 0 mm
05:24 6.6 °C 3.7 °C 1025.3 hPa SSW 7.2 km/h 17.2 km/h 82% 0 mm
05:29 6.6 °C 3.7 °C 1025.6 hPa SSW 7.2 km/h 17.2 km/h 82% 0 mm
05:34 6.6 °C 3.7 °C 1025.6 hPa SSW 5 km/h 17.2 km/h 82% 0 mm
05:40 6.6 °C 3.7 °C 1025.3 hPa SSW 8.7 km/h 21.9 km/h 82% 0 mm
05:45 6.6 °C 3.7 °C 1025.6 hPa SSW 7.2 km/h 21.9 km/h 82% 0 mm
05:50 6.7 °C 3.8 °C 1025.3 hPa South 8.7 km/h 18.3 km/h 82% 0 mm
05:55 6.6 °C 3.7 °C 1025.6 hPa South 7.2 km/h 15.8 km/h 82% 0 mm
06:00 6.6 °C 3.7 °C 1025.3 hPa SSE 9.7 km/h 17.2 km/h 82% 0 mm
06:05 6.6 °C 3.7 °C 1025.3 hPa SSE 8.7 km/h 19.5 km/h 82% 0 mm
06:10 6.6 °C 3.7 °C 1025.6 hPa SSE 8.7 km/h 19.5 km/h 82% 0 mm
06:15 6.6 °C 3.7 °C 1025.6 hPa SSE 6.1 km/h 17.2 km/h 82% 0 mm
06:20 6.6 °C 3.7 °C 1025.6 hPa SSE 9.7 km/h 15.8 km/h 82% 0 mm
06:25 6.6 °C 3.7 °C 1025.6 hPa South 5 km/h 15.8 km/h 82% 0 mm
06:30 6.4 °C 3.6 °C 1025.6 hPa South 6.1 km/h 14.8 km/h 82% 0 mm
06:35 6.4 °C 3.6 °C 1026 hPa South 6.1 km/h 18.3 km/h 82% 0 mm
06:40 6.4 °C 3.6 °C 1025.6 hPa South 6.1 km/h 18.3 km/h 82% 0 mm
06:45 6.4 °C 3.8 °C 1026 hPa South 5 km/h 19.5 km/h 83% 0 mm
06:50 6.4 °C 3.7 °C 1026 hPa South 6.1 km/h 19.5 km/h 83% 0 mm
06:55 6.4 °C 3.7 °C 1026 hPa South 6.1 km/h 15.8 km/h 83% 0 mm
07:00 6.4 °C 3.7 °C 1026 hPa South 9.7 km/h 17.2 km/h 83% 0 mm
07:05 6.4 °C 3.7 °C 1026 hPa SSW 5 km/h 17.2 km/h 83% 0 mm
07:11 6.4 °C 3.7 °C 1026 hPa South 6.1 km/h 15.8 km/h 83% 0 mm
07:16 6.4 °C 3.7 °C 1026 hPa South 6.1 km/h 17.2 km/h 83% 0 mm
07:21 6.4 °C 3.7 °C 1026 hPa South 8.7 km/h 17.2 km/h 83% 0 mm
07:26 6.4 °C 3.7 °C 1026.3 hPa South 8.7 km/h 17.2 km/h 83% 0 mm
07:31 6.4 °C 3.7 °C 1026.3 hPa SSE 11.1 km/h 17.2 km/h 83% 0 mm
07:36 6.4 °C 3.7 °C 1026.3 hPa South 5 km/h 17.2 km/h 83% 0 mm
07:41 6.4 °C 3.8 °C 1026.6 hPa SSE 8.7 km/h 17.2 km/h 83% 0 mm
07:46 6.4 °C 3.8 °C 1026.3 hPa South 9.7 km/h 17.2 km/h 83% 0 mm
07:51 6.4 °C 3.8 °C 1026.3 hPa SSE 6.1 km/h 17.2 km/h 83% 0 mm
07:56 6.6 °C 3.9 °C 1026.3 hPa SSE 11.1 km/h 17.2 km/h 83% 0 mm
08:01 6.6 °C 3.7 °C 1026.3 hPa South 7.2 km/h 19.5 km/h 82% 0 mm
08:06 6.7 °C 3.8 °C 1026.3 hPa SSW 7.2 km/h 19.5 km/h 82% 0 mm
08:11 6.6 °C 3.7 °C 1026.3 hPa SSE 8.7 km/h 19.5 km/h 82% 0 mm
08:16 6.6 °C 3.7 °C 1026.6 hPa SSE 12.2 km/h 20.9 km/h 82% 0 mm
08:21 6.6 °C 3.7 °C 1026.6 hPa SSE 8.7 km/h 20.9 km/h 82% 0 mm
08:26 6.6 °C 3.7 °C 1026.6 hPa SSE 12.2 km/h 20.9 km/h 82% 0 mm
08:31 6.7 °C 3.8 °C 1027 hPa SSE 9.7 km/h 19.5 km/h 82% 0 mm
08:36 6.7 °C 3.6 °C 1027 hPa SSE 7.2 km/h 24.5 km/h 81% 0 mm
08:41 6.8 °C 3.7 °C 1027 hPa SSE 2.6 km/h 24.5 km/h 81% 0 mm
08:46 6.9 °C 3.9 °C 1027 hPa SSE 8.7 km/h 15.8 km/h 81% 0 mm
08:51 7.1 °C 4 °C 1027 hPa SSE 12.2 km/h 18.3 km/h 81% 0 mm
08:56 7.2 °C 3.9 °C 1027 hPa SSE 14.8 km/h 19.5 km/h 80% 0 mm
09:01 7.3 °C 4.1 °C 1027 hPa SSE 6.1 km/h 19.5 km/h 80% 0 mm
09:06 7.3 °C 3.8 °C 1027 hPa South 12.2 km/h 20.9 km/h 79% 0 mm
09:11 7.3 °C 3.8 °C 1027 hPa SSE 6.1 km/h 20.9 km/h 79% 0 mm
09:17 7.3 °C 3.9 °C 1027 hPa South 12.2 km/h 19.5 km/h 79% 0 mm
09:22 7.3 °C 3.8 °C 1027 hPa South 7.2 km/h 18.3 km/h 79% 0 mm
09:27 7.3 °C 3.8 °C 1027.3 hPa SSE 9.7 km/h 18.3 km/h 78% 0 mm
09:32 7.4 °C 4.1 °C 1027 hPa South 8.7 km/h 17.2 km/h 79% 0 mm
09:37 7.8 °C 4.2 °C 1027 hPa South 6.1 km/h 15.8 km/h 78% 0 mm
09:42 8.1 °C 4.3 °C 1027 hPa South 9.7 km/h 18.3 km/h 77% 0 mm
09:47 8.1 °C 4.2 °C 1027 hPa South 7.2 km/h 18.3 km/h 76% 0 mm
09:52 8.5 °C 4.7 °C 1027 hPa SSE 6.1 km/h 15.8 km/h 77% 0 mm
09:57 8.5 °C 4.3 °C 1027 hPa South 11.1 km/h 17.2 km/h 75% 0 mm
10:02 8.4 °C 4.3 °C 1027 hPa South 6.1 km/h 17.2 km/h 75% 0 mm
10:07 8.5 °C 4.3 °C 1027 hPa SSE 7.2 km/h 17.2 km/h 75% 0 mm
10:12 8.6 °C 4.4 °C 1027.3 hPa SSE 5 km/h 13.4 km/h 75% 0 mm
10:17 8.8 °C 4.4 °C 1027.3 hPa South 8.7 km/h 13.4 km/h 74% 0 mm
10:22 8.8 °C 4.4 °C 1027 hPa South 7.2 km/h 20.9 km/h 74% 0 mm
10:27 8.8 °C 4.4 °C 1027 hPa SSE 7.2 km/h 20.9 km/h 74% 0 mm
10:32 9 °C 4.4 °C 1027 hPa South 6.1 km/h 12.2 km/h 73% 0 mm
10:37 9 °C 4.4 °C 1027 hPa South 13.4 km/h 17.2 km/h 73% 0 mm
10:42 9 °C 4.4 °C 1027 hPa South 13.4 km/h 19.5 km/h 73% 0 mm
10:47 8.9 °C 4.3 °C 1026.6 hPa South 11.1 km/h 19.5 km/h 73% 0 mm
10:52 9.1 °C 4.6 °C 1027 hPa South 6.1 km/h 19.5 km/h 73% 0 mm
10:57 9.3 °C 4.7 °C 1027 hPa South 9.7 km/h 18.3 km/h 73% 0 mm
11:02 9.5 °C 4.7 °C 1027 hPa South 8.7 km/h 15.8 km/h 72% 0 mm
www.araratweather.com - Email: contact at araratweather.com
Data created with Cumulus & bmak
Click here to send mail.


ABOUT

Live weather data from Ararat, Victoria, Australia, 3377
Data uploaded from Cumulus every 5 minutes to Weather Underground.
This site then downloads the raw data for formatting and display.
Metric and imperial data can be displayed. Graphs and historical data available.
Includes Sun and Moon times and rain image live from BOM.

Check out Ararat Weather on Facebook, Twitter and Google +

Help support ongoing costs by checking out the ads





Follow @AraratWeather